createdAt,value
2019-04-03T00:00:04.693Z,19.33
2019-04-03T00:02:34.365Z,18.95
2019-04-03T00:05:02.852Z,19.23
2019-04-03T00:07:31.704Z,26.82
2019-04-03T00:10:00.149Z,23.30
2019-04-03T00:12:30.285Z,19.60
2019-04-03T00:14:59.219Z,18.57
2019-04-03T00:17:29.959Z,18.50
2019-04-03T00:19:59.194Z,22.33
2019-04-03T00:22:30.105Z,18.00
2019-04-03T00:24:58.801Z,17.30
2019-04-03T00:27:25.405Z,17.50
2019-04-03T00:29:53.300Z,19.70
2019-04-03T00:32:23.805Z,15.10
2019-04-03T00:34:53.496Z,19.53
2019-04-03T00:37:24.344Z,19.77
2019-04-03T00:39:54.498Z,18.50
2019-04-03T00:42:24.164Z,20.80
2019-04-03T00:44:50.153Z,24.70
2019-04-03T00:47:16.959Z,24.23
2019-04-03T00:49:45.722Z,21.77
2019-04-03T00:52:15.002Z,22.37
2019-04-03T00:54:46.203Z,20.68
2019-04-03T00:57:15.346Z,22.30
2019-04-03T00:59:42.124Z,22.70
2019-04-03T01:02:16.176Z,21.77
2019-04-03T01:04:43.436Z,20.10
2019-04-03T01:07:10.019Z,19.63
2019-04-03T01:09:41.954Z,19.55
2019-04-03T01:12:09.584Z,19.23
2019-04-03T01:14:37.548Z,19.03
2019-04-03T01:17:06.264Z,19.93
2019-04-03T01:19:36.425Z,23.83
2019-04-03T01:24:50.259Z,19.27
2019-04-03T01:27:19.790Z,17.73
2019-04-03T01:29:46.722Z,16.47
2019-04-03T01:32:15.520Z,21.43
2019-04-03T01:34:47.362Z,20.87
2019-04-03T01:37:12.510Z,17.60
2019-04-03T01:39:44.710Z,19.27
2019-04-03T01:42:12.565Z,19.00
2019-04-03T01:44:40.474Z,24.70
2019-04-03T01:47:09.313Z,21.43
2019-04-03T01:49:39.055Z,21.30
2019-04-03T01:52:05.944Z,17.83
2019-04-03T01:54:34.857Z,15.40
2019-04-03T01:57:06.142Z,19.67
2019-04-03T01:59:37.092Z,17.70
2019-04-03T02:02:08.409Z,17.20
2019-04-03T02:04:34.214Z,18.63
2019-04-03T02:07:01.583Z,17.93
2019-04-03T02:09:31.970Z,18.82
2019-04-03T02:11:59.811Z,20.43
2019-04-03T02:14:26.637Z,18.23
2019-04-03T02:16:55.455Z,18.43
2019-04-03T02:19:26.626Z,28.10
2019-04-03T02:21:57.990Z,26.23
2019-04-03T02:24:24.702Z,35.23
2019-04-03T02:26:53.346Z,30.30
2019-04-03T02:29:20.495Z,37.30
2019-04-03T02:31:53.064Z,31.03
2019-04-03T02:34:18.948Z,26.67
2019-04-03T02:36:46.963Z,27.05
2019-04-03T02:39:18.919Z,21.53
2019-04-03T02:41:45.837Z,27.77
2019-04-03T02:44:12.807Z,26.63
2019-04-03T02:46:44.137Z,26.67
2019-04-03T02:49:11.113Z,22.87
2019-04-03T02:51:38.202Z,21.93
2019-04-03T02:54:04.929Z,23.30
2019-04-03T02:56:31.644Z,21.17
2019-04-03T02:58:58.630Z,17.92
2019-04-03T03:01:25.795Z,21.03
2019-04-03T03:03:52.662Z,19.93
2019-04-03T03:06:19.418Z,20.87
2019-04-03T03:08:46.962Z,22.10
2019-04-03T03:11:13.553Z,18.97
2019-04-03T03:13:40.172Z,19.87
2019-04-03T03:16:06.920Z,17.17
2019-04-03T03:18:33.790Z,23.27
2019-04-03T03:21:00.459Z,23.03
2019-04-03T03:23:27.088Z,21.47
2019-04-03T03:25:53.983Z,21.40
2019-04-03T03:28:20.547Z,28.40
2019-04-03T03:30:57.718Z,21.57
2019-04-03T03:33:33.464Z,22.23
2019-04-03T03:35:47.588Z,21.40
2019-04-03T03:38:13.589Z,24.17
2019-04-03T03:40:40.371Z,21.57
2019-04-03T03:43:07.144Z,22.30
2019-04-03T03:45:34.778Z,21.67
2019-04-03T03:48:01.824Z,22.03
2019-04-03T03:50:28.487Z,25.43
2019-04-03T03:52:56.186Z,20.55
2019-04-03T03:55:25.148Z,25.60
2019-04-03T03:57:51.738Z,21.85
2019-04-03T04:00:22.625Z,24.67
2019-04-03T04:02:46.801Z,24.40
2019-04-03T04:05:13.561Z,22.03
2019-04-03T04:07:40.164Z,18.33
2019-04-03T04:10:07.389Z,22.13
2019-04-03T04:12:34.034Z,30.50
2019-04-03T04:15:00.763Z,26.52
2019-04-03T04:17:27.337Z,25.23
2019-04-03T04:19:54.276Z,27.07
2019-04-03T04:22:21.201Z,24.50
2019-04-03T04:24:49.080Z,25.95
2019-04-03T04:27:15.934Z,23.17
2019-04-03T04:29:43.076Z,21.87
2019-04-03T04:32:10.080Z,24.07
2019-04-03T04:34:36.661Z,21.00
2019-04-03T04:37:03.291Z,26.27
2019-04-03T04:39:29.863Z,30.03
2019-04-03T04:41:56.908Z,26.70
2019-04-03T04:44:23.756Z,24.57
2019-04-03T04:46:50.690Z,29.67
2019-04-03T04:49:19.258Z,29.33
2019-04-03T04:51:47.772Z,32.87
2019-04-03T04:54:14.359Z,32.87
2019-04-03T04:56:40.934Z,29.73
2019-04-03T04:59:07.557Z,31.23
2019-04-03T05:01:34.175Z,23.20
2019-04-03T05:04:00.945Z,21.73
2019-04-03T05:06:29.594Z,27.00
2019-04-03T05:08:56.181Z,27.77
2019-04-03T05:11:23.877Z,21.87
2019-04-03T05:13:50.661Z,27.90
2019-04-03T05:16:19.815Z,22.03
2019-04-03T05:18:45.607Z,28.67
2019-04-03T05:21:12.565Z,26.40
2019-04-03T05:23:39.246Z,25.50
2019-04-03T05:26:05.887Z,27.10
2019-04-03T05:28:34.018Z,23.73
2019-04-03T05:31:01.417Z,26.60
2019-04-03T05:33:28.071Z,26.03
2019-04-03T05:35:54.957Z,30.73
2019-04-03T05:38:22.514Z,29.97
2019-04-03T05:40:49.961Z,24.00
2019-04-03T05:43:16.621Z,24.50
2019-04-03T05:45:43.565Z,20.17
2019-04-03T05:48:12.564Z,22.93
2019-04-03T05:50:38.864Z,21.93
2019-04-03T05:53:06.475Z,25.33
2019-04-03T05:55:33.188Z,25.00
2019-04-03T05:58:00.139Z,21.90
2019-04-03T06:00:26.739Z,22.20
2019-04-03T06:02:57.072Z,25.70
2019-04-03T06:05:22.517Z,19.20
2019-04-03T06:07:50.580Z,24.23
2019-04-03T06:10:17.200Z,26.00
2019-04-03T06:12:45.392Z,23.13
2019-04-03T06:15:12.497Z,32.37
2019-04-03T06:17:39.191Z,31.10
2019-04-03T06:20:06.068Z,31.87
2019-04-03T06:22:32.764Z,42.23
2019-04-03T06:25:00.012Z,32.33
2019-04-03T06:27:27.968Z,29.60
2019-04-03T06:29:55.556Z,31.68
2019-04-03T06:32:24.381Z,30.87
2019-04-03T06:34:51.106Z,26.00
2019-04-03T06:37:17.703Z,33.67
2019-04-03T06:39:44.558Z,29.00
2019-04-03T06:42:13.381Z,28.00
2019-04-03T06:44:39.828Z,25.73
2019-04-03T06:47:06.443Z,28.63
2019-04-03T06:49:33.135Z,27.87
2019-04-03T06:51:59.934Z,30.37
2019-04-03T06:54:26.719Z,31.97
2019-04-03T06:56:54.564Z,29.50
2019-04-03T06:59:21.589Z,32.83
2019-04-03T07:01:48.289Z,30.93
2019-04-03T07:04:14.920Z,27.93
2019-04-03T07:06:42.812Z,25.03
2019-04-03T07:09:21.859Z,30.30
2019-04-03T07:11:38.597Z,27.57
2019-04-03T07:14:05.464Z,28.15
2019-04-03T07:16:32.526Z,26.37
2019-04-03T07:18:59.837Z,27.67
2019-04-03T07:21:27.654Z,27.37
2019-04-03T07:23:54.554Z,26.53
2019-04-03T07:26:21.788Z,25.63
2019-04-03T07:28:48.524Z,25.90
2019-04-03T07:31:15.416Z,21.17
2019-04-03T07:33:42.256Z,24.17
2019-04-03T07:36:11.336Z,25.93
2019-04-03T07:38:37.612Z,29.53
2019-04-03T07:41:04.366Z,24.00
2019-04-03T07:43:30.960Z,29.63
2019-04-03T07:45:57.576Z,23.23
2019-04-03T07:48:25.056Z,25.02
2019-04-03T07:50:51.833Z,23.00
2019-04-03T07:53:19.903Z,19.23
2019-04-03T07:55:47.139Z,21.63
2019-04-03T07:58:15.027Z,19.60
2019-04-03T08:00:42.151Z,19.30
2019-04-03T08:03:10.731Z,21.30
2019-04-03T08:05:37.399Z,20.87
2019-04-03T08:08:04.277Z,25.23
2019-04-03T08:10:31.165Z,21.93
2019-04-03T08:15:48.167Z,22.50
2019-04-03T08:18:15.159Z,22.95
2019-04-03T08:20:42.247Z,20.80
2019-04-03T08:23:08.885Z,26.47
2019-04-03T08:25:35.551Z,22.33
2019-04-03T08:28:02.281Z,21.57
2019-04-03T08:30:29.418Z,21.93
2019-04-03T08:32:56.292Z,22.37
2019-04-03T08:35:24.234Z,21.90
2019-04-03T08:37:51.334Z,23.43
2019-04-03T08:40:20.315Z,24.18
2019-04-03T08:42:46.671Z,21.70
2019-04-03T08:45:13.677Z,21.97
2019-04-03T08:47:40.699Z,20.63
2019-04-03T08:50:07.596Z,27.33
2019-04-03T08:52:34.800Z,24.77
2019-04-03T08:55:02.704Z,22.93
2019-04-03T08:57:29.704Z,22.60
2019-04-03T08:59:57.987Z,26.20
2019-04-03T09:02:24.843Z,23.60
2019-04-03T09:04:51.819Z,24.93
2019-04-03T09:07:19.925Z,24.47
2019-04-03T09:09:46.522Z,20.83
2019-04-03T09:12:13.116Z,22.53
2019-04-03T09:14:39.886Z,23.53
2019-04-03T09:17:07.654Z,24.97
2019-04-03T09:19:34.536Z,23.13
2019-04-03T09:22:04.812Z,24.53
2019-04-03T09:24:31.679Z,23.50
2019-04-03T09:26:58.610Z,21.83
2019-04-03T09:29:27.858Z,23.80
2019-04-03T09:31:56.184Z,28.30
2019-04-03T09:34:22.939Z,22.93
2019-04-03T09:36:54.613Z,19.57
2019-04-03T09:39:22.883Z,23.12
2019-04-03T09:41:50.892Z,20.03
2019-04-03T09:44:20.127Z,21.87
2019-04-03T09:46:48.805Z,20.13
2019-04-03T09:49:15.762Z,18.97
2019-04-03T09:51:42.843Z,20.17
2019-04-03T09:54:13.299Z,14.83
2019-04-03T09:56:54.830Z,13.73
2019-04-03T09:59:10.819Z,15.90
2019-04-03T10:01:38.914Z,14.53
2019-04-03T10:04:08.445Z,17.67
2019-04-03T10:06:37.426Z,17.27
2019-04-03T10:09:05.968Z,14.97
2019-04-03T10:11:32.533Z,13.77
2019-04-03T10:14:01.448Z,17.90
2019-04-03T10:16:29.581Z,16.82
2019-04-03T10:18:56.961Z,16.00
2019-04-03T10:21:23.899Z,13.93
2019-04-03T10:23:52.070Z,14.57
2019-04-03T10:26:22.259Z,16.07
2019-04-03T10:29:03.078Z,16.60
2019-04-03T10:31:35.523Z,12.43
2019-04-03T10:34:13.569Z,16.93
2019-04-03T10:36:43.513Z,13.90
2019-04-03T10:39:10.685Z,15.70
2019-04-03T10:41:37.486Z,14.10
2019-04-03T10:44:10.360Z,12.50
2019-04-03T10:46:38.835Z,14.60
2019-04-03T10:49:09.091Z,13.03
2019-04-03T10:51:40.926Z,15.27
2019-04-03T10:54:10.968Z,9.27
2019-04-03T10:56:39.018Z,10.03
2019-04-03T10:59:12.139Z,10.17
2019-04-03T11:01:34.646Z,7.78
2019-04-03T11:04:04.704Z,6.05
2019-04-03T11:06:31.562Z,4.90
2019-04-03T11:09:01.048Z,5.20
2019-04-03T11:11:30.231Z,5.93
2019-04-03T11:13:57.864Z,9.58
2019-04-03T11:16:24.451Z,7.57
2019-04-03T11:19:00.053Z,7.45
2019-04-03T11:21:25.961Z,8.37
2019-04-03T11:23:53.739Z,8.18
2019-04-03T11:26:24.026Z,7.03
2019-04-03T11:28:49.319Z,7.17
2019-04-03T11:31:25.426Z,10.18
2019-04-03T11:33:46.285Z,8.50
2019-04-03T11:36:13.673Z,8.30
2019-04-03T11:38:40.577Z,8.45
2019-04-03T11:41:14.554Z,7.20
2019-04-03T11:43:36.253Z,6.92
2019-04-03T11:46:03.251Z,8.73
2019-04-03T11:48:30.464Z,6.72
2019-04-03T11:50:58.131Z,6.97
2019-04-03T11:53:25.210Z,7.35
2019-04-03T11:55:52.132Z,7.30
2019-04-03T11:58:20.736Z,7.03
2019-04-03T12:00:48.138Z,7.10
2019-04-03T12:03:15.114Z,6.70
2019-04-03T12:05:41.727Z,6.95
2019-04-03T12:08:08.687Z,8.57
2019-04-03T12:10:35.699Z,7.03
2019-04-03T12:13:04.288Z,7.60
2019-04-03T12:15:33.812Z,7.60
2019-04-03T12:18:01.169Z,7.57
2019-04-03T12:20:28.459Z,7.33
2019-04-03T12:22:55.815Z,7.30
2019-04-03T12:25:23.128Z,7.22
2019-04-03T12:27:50.004Z,7.33
2019-04-03T12:30:17.348Z,7.25
2019-04-03T12:32:48.737Z,7.20
2019-04-03T12:35:13.172Z,7.07
2019-04-03T12:37:40.062Z,7.08
2019-04-03T12:40:07.237Z,7.33
2019-04-03T12:42:34.179Z,6.62
2019-04-03T12:45:01.349Z,7.35
2019-04-03T12:47:29.231Z,8.30
2019-04-03T12:49:56.644Z,11.40
2019-04-03T12:52:23.572Z,6.50
2019-04-03T12:54:52.941Z,8.47
2019-04-03T12:57:19.089Z,8.00
2019-04-03T12:59:47.639Z,8.57
2019-04-03T13:02:15.080Z,7.57
2019-04-03T13:04:41.937Z,5.75
2019-04-03T13:07:08.857Z,5.93
2019-04-03T13:09:38.403Z,9.10
2019-04-03T13:12:05.210Z,5.78
2019-04-03T13:14:33.439Z,5.90
2019-04-03T13:17:00.595Z,5.60
2019-04-03T13:19:28.864Z,5.93
2019-04-03T13:21:56.064Z,6.87
2019-04-03T13:24:23.498Z,6.57
2019-04-03T13:26:50.435Z,6.33
2019-04-03T13:29:17.501Z,8.30
2019-04-03T13:31:47.064Z,5.50
2019-04-03T13:34:13.417Z,5.93
2019-04-03T13:36:40.206Z,4.80
2019-04-03T13:39:07.514Z,5.20
2019-04-03T13:41:34.854Z,4.62
2019-04-03T13:44:02.282Z,7.77
2019-04-03T13:46:30.181Z,5.05
2019-04-03T13:48:57.195Z,6.20
2019-04-03T13:51:24.145Z,4.10
2019-04-03T13:53:53.815Z,7.45
2019-04-03T13:56:23.165Z,4.53
2019-04-03T13:58:52.494Z,4.27
2019-04-03T14:01:19.173Z,6.80
2019-04-03T14:03:46.367Z,4.35
2019-04-03T14:06:13.386Z,4.17
2019-04-03T14:08:40.337Z,4.53
2019-04-03T14:11:07.230Z,6.27
2019-04-03T14:13:33.928Z,4.40
2019-04-03T14:16:01.644Z,4.77
2019-04-03T14:18:29.783Z,4.73
2019-04-03T14:20:57.150Z,4.03
2019-04-03T14:23:24.072Z,6.60
2019-04-03T14:26:03.146Z,4.97
2019-04-03T14:28:19.659Z,7.97
2019-04-03T14:30:46.389Z,5.73
2019-04-03T14:33:13.580Z,11.83
2019-04-03T14:35:49.400Z,9.20
2019-04-03T14:38:11.590Z,6.87
2019-04-03T14:40:37.461Z,11.17
2019-04-03T14:43:04.337Z,15.37
2019-04-03T14:45:31.292Z,18.60
2019-04-03T14:47:58.179Z,37.00
2019-04-03T14:50:25.674Z,16.80
2019-04-03T14:52:52.716Z,27.07
2019-04-03T14:55:22.635Z,10.40
2019-04-03T14:57:48.491Z,6.00
2019-04-03T15:00:26.111Z,7.47
2019-04-03T15:02:43.669Z,3.20
2019-04-03T15:05:10.947Z,3.30
2019-04-03T15:07:37.513Z,4.70
2019-04-03T15:10:04.097Z,7.23
2019-04-03T15:12:30.680Z,3.27
2019-04-03T15:14:57.581Z,3.75
2019-04-03T15:17:24.709Z,3.57
2019-04-03T15:19:51.891Z,3.58
2019-04-03T15:22:18.560Z,4.37
2019-04-03T15:24:45.713Z,3.87
2019-04-03T15:27:13.233Z,3.42
2019-04-03T15:29:41.301Z,3.53
2019-04-03T15:32:08.468Z,3.73
2019-04-03T15:34:35.681Z,3.20
2019-04-03T15:37:02.362Z,3.00
2019-04-03T15:39:29.932Z,2.90
2019-04-03T15:42:06.705Z,3.37
2019-04-03T15:44:35.283Z,6.17
2019-04-03T15:47:02.310Z,3.67
2019-04-03T15:49:29.797Z,3.80
2019-04-03T15:51:56.959Z,3.70
2019-04-03T15:54:26.199Z,3.73
2019-04-03T15:56:52.344Z,7.07
2019-04-03T15:59:19.562Z,6.73
2019-04-03T16:01:46.197Z,3.83
2019-04-03T16:04:13.056Z,3.97
2019-04-03T16:06:41.141Z,3.77
2019-04-03T16:09:08.101Z,3.20
2019-04-03T16:11:35.814Z,3.08
2019-04-03T16:14:02.722Z,3.90
2019-04-03T16:16:29.444Z,3.50
2019-04-03T16:18:56.110Z,3.70
2019-04-03T16:21:24.301Z,4.08
2019-04-03T16:23:51.537Z,3.50
2019-04-03T16:26:18.265Z,4.07
2019-04-03T16:28:45.211Z,5.15
2019-04-03T16:31:11.777Z,4.60
2019-04-03T16:33:38.844Z,4.30
2019-04-03T16:36:07.012Z,4.20
2019-04-03T16:38:35.870Z,5.50
2019-04-03T16:41:02.352Z,5.13
2019-04-03T16:43:29.540Z,4.43
2019-04-03T16:45:56.322Z,5.00
2019-04-03T16:48:23.037Z,4.90
2019-04-03T16:50:50.062Z,4.97
2019-04-03T16:53:19.848Z,5.55
2019-04-03T16:55:47.570Z,5.37
2019-04-03T16:58:14.196Z,5.27
2019-04-03T17:00:42.719Z,5.77
2019-04-03T17:03:09.922Z,6.13
2019-04-03T17:05:37.667Z,6.30
2019-04-03T17:08:04.460Z,5.30
2019-04-03T17:10:31.042Z,10.93
2019-04-03T17:12:57.925Z,13.30
2019-04-03T17:15:24.829Z,6.63
2019-04-03T17:17:51.600Z,6.47
2019-04-03T17:20:18.545Z,4.93
2019-04-03T17:22:46.790Z,4.40
2019-04-03T17:25:13.916Z,7.57
2019-04-03T17:27:40.635Z,4.80
2019-04-03T17:30:07.938Z,4.90
2019-04-03T17:32:37.925Z,6.37
2019-04-03T17:35:20.859Z,4.67
2019-04-03T17:37:53.719Z,5.77
2019-04-03T17:40:20.485Z,5.40
2019-04-03T17:42:48.894Z,7.73
2019-04-03T17:48:01.444Z,12.23
2019-04-03T17:50:33.077Z,7.27
2019-04-03T17:52:58.828Z,7.10
2019-04-03T17:55:33.221Z,7.03
2019-04-03T17:57:56.819Z,7.63
2019-04-03T18:00:25.787Z,6.83
2019-04-03T18:03:05.563Z,9.07
2019-04-03T18:05:33.336Z,7.63
2019-04-03T18:08:04.791Z,6.83
2019-04-03T18:10:28.778Z,7.00
2019-04-03T18:12:55.368Z,7.00
2019-04-03T18:15:22.017Z,5.70
2019-04-03T18:17:48.632Z,6.97
2019-04-03T18:20:15.213Z,6.90
2019-04-03T18:22:41.844Z,6.07
2019-04-03T18:25:09.020Z,6.37
2019-04-03T18:27:35.608Z,7.03
2019-04-03T18:30:02.663Z,7.17
2019-04-03T18:32:29.953Z,6.47
2019-04-03T18:34:56.876Z,6.07
2019-04-03T18:37:23.502Z,7.33
2019-04-03T18:39:51.578Z,6.40
2019-04-03T18:42:19.161Z,7.77
2019-04-03T18:44:45.960Z,7.00
2019-04-03T18:47:12.866Z,7.30
2019-04-03T18:49:40.051Z,6.30
2019-04-03T18:52:08.032Z,6.57
2019-04-03T18:54:35.142Z,7.20
2019-04-03T18:57:01.732Z,7.97
2019-04-03T18:59:28.379Z,6.17
2019-04-03T19:01:54.989Z,6.70
2019-04-03T19:04:21.583Z,7.13
2019-04-03T19:06:48.231Z,8.23
2019-04-03T19:09:15.123Z,7.65
2019-04-03T19:11:41.721Z,7.43
2019-04-03T19:14:08.597Z,6.93
2019-04-03T19:16:43.924Z,7.80
2019-04-03T19:19:08.219Z,7.90
2019-04-03T19:21:32.009Z,7.30
2019-04-03T19:24:11.071Z,7.93
2019-04-03T19:26:40.990Z,7.63
2019-04-03T19:29:07.816Z,7.37
2019-04-03T19:31:34.671Z,7.63
2019-04-03T19:34:03.861Z,10.40
2019-04-03T19:36:33.041Z,7.83
2019-04-03T19:38:59.965Z,8.53
2019-04-03T19:41:28.690Z,7.50
2019-04-03T19:43:55.349Z,7.40
2019-04-03T19:46:22.767Z,6.40
2019-04-03T19:48:49.993Z,7.20
2019-04-03T19:51:18.279Z,7.42
2019-04-03T19:53:58.698Z,7.87
2019-04-03T19:56:19.977Z,7.72
2019-04-03T19:58:49.187Z,7.83
2019-04-03T20:01:23.791Z,9.63
2019-04-03T20:03:48.031Z,9.53
2019-04-03T20:06:14.911Z,8.85
2019-04-03T20:08:44.569Z,14.07
2019-04-03T20:11:11.530Z,10.15
2019-04-03T20:13:39.825Z,9.27
2019-04-03T20:16:10.511Z,9.50
2019-04-03T20:18:37.320Z,9.20
2019-04-03T20:21:05.186Z,9.60
2019-04-03T20:23:34.596Z,9.37
2019-04-03T20:26:04.629Z,11.30
2019-04-03T20:28:30.223Z,11.43
2019-04-03T20:30:57.349Z,10.17
2019-04-03T20:33:25.980Z,10.20
2019-04-03T20:35:55.680Z,13.00
2019-04-03T20:38:33.211Z,12.73
2019-04-03T20:41:02.871Z,12.37
2019-04-03T20:43:28.779Z,12.67
2019-04-03T20:45:57.753Z,11.83
2019-04-03T20:48:28.225Z,11.80
2019-04-03T20:50:55.604Z,10.77
2019-04-03T20:53:26.107Z,11.00
2019-04-03T20:55:52.700Z,10.40
2019-04-03T20:58:21.432Z,10.53
2019-04-03T21:00:49.953Z,11.00
2019-04-03T21:03:18.949Z,11.63
2019-04-03T21:05:46.875Z,10.10
2019-04-03T21:08:16.297Z,10.72
2019-04-03T21:10:46.820Z,9.70
2019-04-03T21:13:15.409Z,11.00
2019-04-03T21:15:46.176Z,10.03
2019-04-03T21:18:13.918Z,9.77
2019-04-03T21:20:41.439Z,9.27
2019-04-03T21:23:08.254Z,9.53
2019-04-03T21:25:36.063Z,10.30
2019-04-03T21:28:03.259Z,9.07
2019-04-03T21:30:31.599Z,10.17
2019-04-03T21:32:59.879Z,9.50
2019-04-03T21:35:27.113Z,8.47
2019-04-03T21:37:56.230Z,8.77
2019-04-03T21:40:25.100Z,10.43
2019-04-03T21:42:54.061Z,8.43
2019-04-03T21:45:23.516Z,9.28
2019-04-03T21:47:50.111Z,10.70
2019-04-03T21:50:18.920Z,11.03
2019-04-03T21:52:45.086Z,9.33
2019-04-03T21:55:13.403Z,10.57
2019-04-03T21:57:39.945Z,10.60
2019-04-03T22:00:22.709Z,11.43
2019-04-03T22:02:35.916Z,9.57
2019-04-03T22:05:07.102Z,9.30
2019-04-03T22:07:37.077Z,10.60
2019-04-03T22:10:03.665Z,9.43
2019-04-03T22:12:30.332Z,9.43
2019-04-03T22:14:59.425Z,9.33
2019-04-03T22:17:27.736Z,8.77
2019-04-03T22:19:54.286Z,10.13
2019-04-03T22:22:23.009Z,10.40
2019-04-03T22:24:49.599Z,10.77
2019-04-03T22:27:16.260Z,10.10
2019-04-03T22:29:43.176Z,8.97
2019-04-03T22:32:09.876Z,9.80
2019-04-03T22:34:36.747Z,10.82
2019-04-03T22:37:05.117Z,11.90
2019-04-03T22:39:32.024Z,9.98
2019-04-03T22:41:58.975Z,10.63
2019-04-03T22:44:25.616Z,12.47
2019-04-03T22:46:54.099Z,13.53
2019-04-03T22:49:21.655Z,12.17
2019-04-03T22:51:50.551Z,9.47
2019-04-03T22:54:17.445Z,14.10
2019-04-03T22:56:47.706Z,12.33
2019-04-03T22:59:12.444Z,12.73
2019-04-03T23:01:39.335Z,12.05
2019-04-03T23:04:07.859Z,14.17
2019-04-03T23:06:34.410Z,12.20
2019-04-03T23:09:02.023Z,10.90
2019-04-03T23:11:32.032Z,11.20
2019-04-03T23:14:00.496Z,11.67
2019-04-03T23:16:31.924Z,10.47
2019-04-03T23:19:01.710Z,12.83
2019-04-03T23:21:32.341Z,11.30
2019-04-03T23:23:59.155Z,10.53
2019-04-03T23:26:27.039Z,9.40
2019-04-03T23:31:44.547Z,11.22
2019-04-03T23:34:11.337Z,9.60
2019-04-03T23:36:42.674Z,12.65
2019-04-03T23:39:14.098Z,10.80
2019-04-03T23:41:43.672Z,10.48
2019-04-03T23:44:11.658Z,10.03
2019-04-03T23:46:45.376Z,15.20
2019-04-03T23:49:13.099Z,9.63
2019-04-03T23:51:40.998Z,10.40
2019-04-03T23:54:16.008Z,11.03
2019-04-03T23:56:42.052Z,9.85
2019-04-03T23:59:12.667Z,10.30
